sensor_id;sensor_type;location;lat;lon;timestamp;pressure;altitude;pressure_sealevel;temperature;humidity
78990;BME280;68390;52.130;21.218;2023-03-30T00:01:51;100586.63;;;2.01;52.49
78990;BME280;68390;52.130;21.218;2023-03-30T00:04:18;100583.81;;;2.02;52.47
78990;BME280;68390;52.130;21.218;2023-03-30T00:06:47;100577.53;;;2.02;53.90
78990;BME280;68390;52.130;21.218;2023-03-30T00:09:14;100579.38;;;2.01;53.35
78990;BME280;68390;52.130;21.218;2023-03-30T00:11:39;100574.94;;;2.00;55.07
78990;BME280;68390;52.130;21.218;2023-03-30T00:14:05;100571.25;;;2.01;53.80
78990;BME280;68390;52.130;21.218;2023-03-30T00:16:30;100564.34;;;1.97;53.13
78990;BME280;68390;52.130;21.218;2023-03-30T00:18:56;100567.06;;;1.97;53.81
78990;BME280;68390;52.130;21.218;2023-03-30T00:21:21;100576.88;;;1.98;53.37
78990;BME280;68390;52.130;21.218;2023-03-30T00:23:48;100576.16;;;1.96;55.73
78990;BME280;68390;52.130;21.218;2023-03-30T00:26:14;100572.59;;;1.96;54.99
78990;BME280;68390;52.130;21.218;2023-03-30T00:28:40;100572.69;;;1.94;55.95
78990;BME280;68390;52.130;21.218;2023-03-30T00:31:06;100562.19;;;1.90;58.09
78990;BME280;68390;52.130;21.218;2023-03-30T00:33:32;100567.72;;;1.88;56.21
78990;BME280;68390;52.130;21.218;2023-03-30T00:35:57;100561.56;;;1.86;57.80
78990;BME280;68390;52.130;21.218;2023-03-30T00:38:24;100562.63;;;1.83;57.20
78990;BME280;68390;52.130;21.218;2023-03-30T00:40:54;100553.88;;;1.80;57.62
78990;BME280;68390;52.130;21.218;2023-03-30T00:43:21;100555.69;;;1.79;56.08
78990;BME280;68390;52.130;21.218;2023-03-30T00:45:46;100543.38;;;1.75;56.55
78990;BME280;68390;52.130;21.218;2023-03-30T00:50:53;100543.50;;;1.74;57.91
78990;BME280;68390;52.130;21.218;2023-03-30T00:53:33;100542.72;;;1.72;57.50
78990;BME280;68390;52.130;21.218;2023-03-30T00:56:00;100543.72;;;1.71;58.18
78990;BME280;68390;52.130;21.218;2023-03-30T00:58:26;100537.53;;;1.69;59.27
78990;BME280;68390;52.130;21.218;2023-03-30T01:00:52;100533.84;;;1.70;57.14
78990;BME280;68390;52.130;21.218;2023-03-30T01:03:22;100532.88;;;1.71;57.34
78990;BME280;68390;52.130;21.218;2023-03-30T01:05:50;100528.22;;;1.73;57.29
78990;BME280;68390;52.130;21.218;2023-03-30T01:08:16;100526.28;;;1.75;56.66
78990;BME280;68390;52.130;21.218;2023-03-30T01:10:45;100524.09;;;1.80;57.35
78990;BME280;68390;52.130;21.218;2023-03-30T01:13:12;100520.41;;;1.81;57.90
78990;BME280;68390;52.130;21.218;2023-03-30T01:15:50;100512.19;;;1.82;56.74
78990;BME280;68390;52.130;21.218;2023-03-30T01:26:46;100513.44;;;1.90;57.83
78990;BME280;68390;52.130;21.218;2023-03-30T01:29:19;100511.38;;;1.93;58.28
78990;BME280;68390;52.130;21.218;2023-03-30T01:34:56;100517.19;;;2.00;58.02
78990;BME280;68390;52.130;21.218;2023-03-30T01:40:17;100513.31;;;2.04;59.18
78990;BME280;68390;52.130;21.218;2023-03-30T01:43:03;100519.47;;;2.06;59.62
78990;BME280;68390;52.130;21.218;2023-03-30T01:48:16;100519.97;;;2.11;58.75
78990;BME280;68390;52.130;21.218;2023-03-30T01:50:53;100521.59;;;2.13;59.11
78990;BME280;68390;52.130;21.218;2023-03-30T01:53:29;100515.09;;;2.16;58.29
78990;BME280;68390;52.130;21.218;2023-03-30T02:01:06;100503.69;;;2.24;57.60
78990;BME280;68390;52.130;21.218;2023-03-30T02:03:36;100491.88;;;2.25;57.75
78990;BME280;68390;52.130;21.218;2023-03-30T02:06:11;100489.94;;;2.27;58.15
78990;BME280;68390;52.130;21.218;2023-03-30T02:08:41;100498.78;;;2.29;58.90
78990;BME280;68390;52.130;21.218;2023-03-30T02:11:07;100495.94;;;2.30;58.20
78990;BME280;68390;52.130;21.218;2023-03-30T02:13:33;100490.53;;;2.30;57.93
78990;BME280;68390;52.130;21.218;2023-03-30T02:16:15;100481.44;;;2.31;57.60
78990;BME280;68390;52.130;21.218;2023-03-30T02:18:42;100481.44;;;2.31;59.65
78990;BME280;68390;52.130;21.218;2023-03-30T02:21:09;100488.59;;;2.32;59.32
78990;BME280;68390;52.130;21.218;2023-03-30T02:23:37;100472.22;;;2.34;58.90
78990;BME280;68390;52.130;21.218;2023-03-30T02:26:04;100481.22;;;2.34;58.69
78990;BME280;68390;52.130;21.218;2023-03-30T02:28:32;100473.94;;;2.35;58.17
78990;BME280;68390;52.130;21.218;2023-03-30T02:30:57;100469.50;;;2.34;58.77
78990;BME280;68390;52.130;21.218;2023-03-30T02:33:28;100471.47;;;2.32;59.30
78990;BME280;68390;52.130;21.218;2023-03-30T02:36:22;100475.16;;;2.31;58.42
78990;BME280;68390;52.130;21.218;2023-03-30T02:39:07;100475.16;;;2.31;59.16
78990;BME280;68390;52.130;21.218;2023-03-30T02:42:04;100469.97;;;2.28;59.08
78990;BME280;68390;52.130;21.218;2023-03-30T02:44:43;100466.25;;;2.29;60.03
78990;BME280;68390;52.130;21.218;2023-03-30T02:53:07;100461.59;;;2.31;59.04
78990;BME280;68390;52.130;21.218;2023-03-30T02:55:43;100467.78;;;2.33;61.07
78990;BME280;68390;52.130;21.218;2023-03-30T03:03:44;100454.97;;;2.35;60.00
78990;BME280;68390;52.130;21.218;2023-03-30T03:06:12;100453.03;;;2.37;60.71
78990;BME280;68390;52.130;21.218;2023-03-30T03:08:40;100453.03;;;2.37;59.89
78990;BME280;68390;52.130;21.218;2023-03-30T03:11:06;100445.66;;;2.39;60.21
78990;BME280;68390;52.130;21.218;2023-03-30T03:13:33;100444.53;;;2.41;61.01
78990;BME280;68390;52.130;21.218;2023-03-30T03:16:04;100442.56;;;2.43;59.59
78990;BME280;68390;52.130;21.218;2023-03-30T03:18:30;100435.19;;;2.45;59.91
78990;BME280;68390;52.130;21.218;2023-03-30T03:20:59;100430.63;;;2.46;59.37
78990;BME280;68390;52.130;21.218;2023-03-30T03:23:24;100431.50;;;2.46;60.86
78990;BME280;68390;52.130;21.218;2023-03-30T03:25:50;100434.22;;;2.46;59.76
78990;BME280;68390;52.130;21.218;2023-03-30T03:28:16;100433.13;;;2.49;59.23
78990;BME280;68390;52.130;21.218;2023-03-30T03:30:41;100434.81;;;2.50;60.71
78990;BME280;68390;52.130;21.218;2023-03-30T03:33:07;100431.88;;;2.53;59.87
78990;BME280;68390;52.130;21.218;2023-03-30T03:35:32;100424.50;;;2.55;60.02
78990;BME280;68390;52.130;21.218;2023-03-30T03:37:58;100415.38;;;2.56;59.94
78990;BME280;68390;52.130;21.218;2023-03-30T03:40:24;100427.84;;;2.58;60.09
78990;BME280;68390;52.130;21.218;2023-03-30T03:42:49;100425.75;;;2.62;59.91
78990;BME280;68390;52.130;21.218;2023-03-30T03:45:14;100419.34;;;2.63;60.49
78990;BME280;68390;52.130;21.218;2023-03-30T03:47:40;100418.25;;;2.66;60.90
78990;BME280;68390;52.130;21.218;2023-03-30T03:50:06;100417.16;;;2.68;60.18
78990;BME280;68390;52.130;21.218;2023-03-30T03:52:34;100413.31;;;2.71;59.75
78990;BME280;68390;52.130;21.218;2023-03-30T03:55:01;100412.22;;;2.73;60.75
78990;BME280;68390;52.130;21.218;2023-03-30T03:57:26;100412.09;;;2.75;59.75
78990;BME280;68390;52.130;21.218;2023-03-30T03:59:51;100411.88;;;2.78;60.08
78990;BME280;68390;52.130;21.218;2023-03-30T04:02:19;100409.75;;;2.81;60.72
78990;BME280;68390;52.130;21.218;2023-03-30T04:04:44;100404.22;;;2.83;60.10
78990;BME280;68390;52.130;21.218;2023-03-30T04:07:09;100410.38;;;2.85;60.03
78990;BME280;68390;52.130;21.218;2023-03-30T04:09:35;100403.88;;;2.87;60.25
78990;BME280;68390;52.130;21.218;2023-03-30T04:12:01;100393.88;;;2.88;60.34
78990;BME280;68390;52.130;21.218;2023-03-30T04:14:26;100403.63;;;2.90;59.58
78990;BME280;68390;52.130;21.218;2023-03-30T04:16:52;100391.06;;;2.89;60.65
78990;BME280;68390;52.130;21.218;2023-03-30T04:19:17;100390.06;;;2.90;61.42
78990;BME280;68390;52.130;21.218;2023-03-30T04:21:42;100384.50;;;2.92;60.33
78990;BME280;68390;52.130;21.218;2023-03-30T04:24:12;100389.81;;;2.93;60.62
78990;BME280;68390;52.130;21.218;2023-03-30T04:26:37;100388.81;;;2.94;60.45
78990;BME280;68390;52.130;21.218;2023-03-30T04:29:03;100380.69;;;2.94;61.15
78990;BME280;68390;52.130;21.218;2023-03-30T04:31:30;100376.00;;;2.97;60.91
78990;BME280;68390;52.130;21.218;2023-03-30T04:34:00;100383.91;;;3.00;60.49
78990;BME280;68390;52.130;21.218;2023-03-30T04:36:28;100382.94;;;3.01;62.37
78990;BME280;68390;52.130;21.218;2023-03-30T04:38:55;100380.06;;;3.02;61.37
78990;BME280;68390;52.130;21.218;2023-03-30T04:41:29;100380.69;;;3.06;61.22
78990;BME280;68390;52.130;21.218;2023-03-30T04:44:01;100380.44;;;3.09;60.16
78990;BME280;68390;52.130;21.218;2023-03-30T04:46:28;100383.16;;;3.09;61.28
78990;BME280;68390;52.130;21.218;2023-03-30T04:48:53;100373.06;;;3.11;60.42
78990;BME280;68390;52.130;21.218;2023-03-30T04:51:18;100380.06;;;3.13;61.56
78990;BME280;68390;52.130;21.218;2023-03-30T04:53:44;100378.84;;;3.17;60.59
78990;BME280;68390;52.130;21.218;2023-03-30T04:56:09;100374.03;;;3.21;61.11
78990;BME280;68390;52.130;21.218;2023-03-30T04:58:36;100372.91;;;3.23;60.36
78990;BME280;68390;52.130;21.218;2023-03-30T05:01:01;100382.66;;;3.26;61.11
78990;BME280;68390;52.130;21.218;2023-03-30T05:03:27;100375.25;;;3.28;60.67
78990;BME280;68390;52.130;21.218;2023-03-30T05:05:53;100371.31;;;3.32;60.06
78990;BME280;68390;52.130;21.218;2023-03-30T05:08:18;100374.50;;;3.37;60.70
78990;BME280;68390;52.130;21.218;2023-03-30T05:10:44;100368.56;;;3.43;60.22
78990;BME280;68390;52.130;21.218;2023-03-30T05:13:09;100369.06;;;3.48;61.17
78990;BME280;68390;52.130;21.218;2023-03-30T05:15:35;100369.53;;;3.53;60.61
78990;BME280;68390;52.130;21.218;2023-03-30T05:18:00;100356.47;;;3.58;60.33
78990;BME280;68390;52.130;21.218;2023-03-30T05:20:26;100357.06;;;3.62;60.15
78990;BME280;68390;52.130;21.218;2023-03-30T05:22:51;100362.09;;;3.66;60.94
78990;BME280;68390;52.130;21.218;2023-03-30T05:25:18;100361.47;;;3.74;61.06
78990;BME280;68390;52.130;21.218;2023-03-30T05:27:44;100354.53;;;3.81;59.46
78990;BME280;68390;52.130;21.218;2023-03-30T05:30:10;100358.59;;;3.87;59.20
78990;BME280;68390;52.130;21.218;2023-03-30T05:32:35;100357.97;;;3.94;59.99
78990;BME280;68390;52.130;21.218;2023-03-30T05:35:01;100353.97;;;3.98;58.73
78990;BME280;68390;52.130;21.218;2023-03-30T05:37:26;100359.75;;;4.05;59.03
78990;BME280;68390;52.130;21.218;2023-03-30T05:39:52;100359.38;;;4.10;59.08
78990;BME280;68390;52.130;21.218;2023-03-30T05:42:17;100345.53;;;4.13;59.96
78990;BME280;68390;52.130;21.218;2023-03-30T05:44:43;100353.28;;;4.17;58.87
78990;BME280;68390;52.130;21.218;2023-03-30T05:47:08;100356.47;;;4.22;59.33
78990;BME280;68390;52.130;21.218;2023-03-30T05:49:34;100356.22;;;4.25;58.25
78990;BME280;68390;52.130;21.218;2023-03-30T05:51:59;100352.97;;;4.31;59.51
78990;BME280;68390;52.130;21.218;2023-03-30T05:54:25;100360.75;;;4.36;58.63
78990;BME280;68390;52.130;21.218;2023-03-30T05:56:51;100357.59;;;4.40;59.10
78990;BME280;68390;52.130;21.218;2023-03-30T05:59:17;100345.19;;;4.48;59.79
78990;BME280;68390;52.130;21.218;2023-03-30T06:01:43;100343.81;;;4.53;57.27
78990;BME280;68390;52.130;21.218;2023-03-30T06:04:10;100338.69;;;4.60;59.43
78990;BME280;68390;52.130;21.218;2023-03-30T06:06:35;100345.59;;;4.64;59.01
78990;BME280;68390;52.130;21.218;2023-03-30T06:09:01;100339.47;;;4.71;57.72
78990;BME280;68390;52.130;21.218;2023-03-30T06:11:27;100330.94;;;4.76;57.41
78990;BME280;68390;52.130;21.218;2023-03-30T06:13:53;100327.91;;;4.79;57.31
78990;BME280;68390;52.130;21.218;2023-03-30T06:16:18;100327.66;;;4.82;57.74
78990;BME280;68390;52.130;21.218;2023-03-30T06:18:43;100346.16;;;4.88;57.93
78990;BME280;68390;52.130;21.218;2023-03-30T06:21:09;100344.03;;;4.92;57.95
78990;BME280;68390;52.130;21.218;2023-03-30T06:23:36;100347.34;;;4.95;56.15
78990;BME280;68390;52.130;21.218;2023-03-30T06:26:02;100339.63;;;5.00;57.83
78990;BME280;68390;52.130;21.218;2023-03-30T06:28:28;100344.81;;;5.03;57.28
78990;BME280;68390;52.130;21.218;2023-03-30T06:30:53;100338.22;;;5.06;57.39
78990;BME280;68390;52.130;21.218;2023-03-30T06:33:19;100336.06;;;5.09;58.04
78990;BME280;68390;52.130;21.218;2023-03-30T06:35:48;100342.72;;;5.16;59.01
78990;BME280;68390;52.130;21.218;2023-03-30T06:38:15;100334.00;;;5.23;58.02
78990;BME280;68390;52.130;21.218;2023-03-30T06:40:41;100330.00;;;5.27;56.25
78990;BME280;68390;52.130;21.218;2023-03-30T06:43:07;100320.13;;;5.35;57.85
78990;BME280;68390;52.130;21.218;2023-03-30T06:45:37;100326.59;;;5.44;57.47
78990;BME280;68390;52.130;21.218;2023-03-30T06:48:03;100325.63;;;5.54;57.48
78990;BME280;68390;52.130;21.218;2023-03-30T06:50:28;100325.66;;;5.64;58.44
78990;BME280;68390;52.130;21.218;2023-03-30T06:52:53;100325.66;;;5.74;58.07
78990;BME280;68390;52.130;21.218;2023-03-30T06:55:19;100321.94;;;5.84;59.16
78990;BME280;68390;52.130;21.218;2023-03-30T06:57:45;100321.13;;;5.94;57.76
78990;BME280;68390;52.130;21.218;2023-03-30T07:00:11;100323.16;;;6.01;57.72
78990;BME280;68390;52.130;21.218;2023-03-30T07:02:39;100320.13;;;6.04;56.11
78990;BME280;68390;52.130;21.218;2023-03-30T07:05:05;100319.69;;;6.09;56.39
78990;BME280;68390;52.130;21.218;2023-03-30T07:07:31;100319.25;;;6.13;55.89
78990;BME280;68390;52.130;21.218;2023-03-30T07:09:57;100325.00;;;6.20;56.36
78990;BME280;68390;52.130;21.218;2023-03-30T07:12:22;100327.13;;;6.26;57.87
78990;BME280;68390;52.130;21.218;2023-03-30T07:14:48;100317.53;;;6.32;56.16
78990;BME280;68390;52.130;21.218;2023-03-30T07:17:13;100320.81;;;6.35;56.43
78990;BME280;68390;52.130;21.218;2023-03-30T07:19:38;100317.53;;;6.41;54.85
78990;BME280;68390;52.130;21.218;2023-03-30T07:22:04;100321.25;;;6.40;54.89
78990;BME280;68390;52.130;21.218;2023-03-30T07:24:29;100315.94;;;6.39;54.28
78990;BME280;68390;52.130;21.218;2023-03-30T07:26:56;100323.41;;;6.37;54.73
78990;BME280;68390;52.130;21.218;2023-03-30T07:29:21;100320.81;;;6.35;57.03
78990;BME280;68390;52.130;21.218;2023-03-30T07:31:47;100323.53;;;6.35;56.43
78990;BME280;68390;52.130;21.218;2023-03-30T07:34:12;100315.06;;;6.38;55.80
78990;BME280;68390;52.130;21.218;2023-03-30T07:36:38;100315.94;;;6.39;56.27
78990;BME280;68390;52.130;21.218;2023-03-30T07:39:03;100311.06;;;6.42;58.05
78990;BME280;68390;52.130;21.218;2023-03-30T07:41:31;100317.94;;;6.46;56.59
78990;BME280;68390;52.130;21.218;2023-03-30T07:43:56;100305.59;;;6.52;55.78
78990;BME280;68390;52.130;21.218;2023-03-30T07:46:21;100305.69;;;6.60;56.94
78990;BME280;68390;52.130;21.218;2023-03-30T07:48:47;100305.97;;;6.67;55.12
78990;BME280;68390;52.130;21.218;2023-03-30T07:51:12;100304.38;;;6.74;55.69
78990;BME280;68390;52.130;21.218;2023-03-30T07:53:38;100299.31;;;6.79;57.05
78990;BME280;68390;52.130;21.218;2023-03-30T07:56:04;100301.00;;;6.89;55.93
78990;BME280;68390;52.130;21.218;2023-03-30T07:58:30;100301.69;;;7.01;55.49
78990;BME280;68390;52.130;21.218;2023-03-30T08:00:56;100295.31;;;7.10;55.11
78990;BME280;68390;52.130;21.218;2023-03-30T08:03:21;100301.59;;;7.20;54.13
78990;BME280;68390;52.130;21.218;2023-03-30T08:05:54;100300.16;;;7.26;55.08
78990;BME280;68390;52.130;21.218;2023-03-30T08:08:20;100296.34;;;7.36;55.38
78990;BME280;68390;52.130;21.218;2023-03-30T08:10:45;100295.09;;;7.49;55.13
78990;BME280;68390;52.130;21.218;2023-03-30T08:13:11;100293.00;;;7.60;54.68
78990;BME280;68390;52.130;21.218;2023-03-30T08:15:37;100285.31;;;7.73;54.37
78990;BME280;68390;52.130;21.218;2023-03-30T08:18:03;100291.41;;;7.85;54.78
78990;BME280;68390;52.130;21.218;2023-03-30T08:20:36;100289.06;;;7.90;52.62
78990;BME280;68390;52.130;21.218;2023-03-30T08:23:03;100285.56;;;7.98;54.17
78990;BME280;68390;52.130;21.218;2023-03-30T08:25:28;100287.00;;;8.10;55.11
78990;BME280;68390;52.130;21.218;2023-03-30T08:27:54;100288.84;;;8.19;55.56
78990;BME280;68390;52.130;21.218;2023-03-30T08:30:20;100281.22;;;8.31;54.27
78990;BME280;68390;52.130;21.218;2023-03-30T08:32:46;100281.94;;;8.33;54.42
78990;BME280;68390;52.130;21.218;2023-03-30T08:35:12;100278.03;;;8.35;53.88
78990;BME280;68390;52.130;21.218;2023-03-30T08:37:37;100275.31;;;8.35;51.86
78990;BME280;68390;52.130;21.218;2023-03-30T08:40:04;100279.38;;;8.31;54.10
78990;BME280;68390;52.130;21.218;2023-03-30T08:42:51;100279.75;;;8.36;53.13
78990;BME280;68390;52.130;21.218;2023-03-30T08:45:18;100277.72;;;8.38;53.20
78990;BME280;68390;52.130;21.218;2023-03-30T08:47:47;100276.16;;;8.36;52.66
78990;BME280;68390;52.130;21.218;2023-03-30T08:50:29;100274.91;;;8.30;52.63
78990;BME280;68390;52.130;21.218;2023-03-30T08:52:55;100270.25;;;8.31;53.43
78990;BME280;68390;52.130;21.218;2023-03-30T08:55:34;100255.44;;;8.33;52.80
78990;BME280;68390;52.130;21.218;2023-03-30T09:08:37;100239.97;;;8.24;53.93
78990;BME280;68390;52.130;21.218;2023-03-30T09:11:09;100241.13;;;8.22;53.69
78990;BME280;68390;52.130;21.218;2023-03-30T09:13:37;100237.53;;;8.21;53.50
78990;BME280;68390;52.130;21.218;2023-03-30T09:18:37;100227.94;;;8.17;53.43
78990;BME280;68390;52.130;21.218;2023-03-30T09:21:04;100227.78;;;8.19;54.08
78990;BME280;68390;52.130;21.218;2023-03-30T09:23:31;100223.19;;;8.19;53.59
78990;BME280;68390;52.130;21.218;2023-03-30T09:26:11;100224.72;;;8.22;53.99
78990;BME280;68390;52.130;21.218;2023-03-30T09:29:04;100215.34;;;8.24;54.10
78990;BME280;68390;52.130;21.218;2023-03-30T09:31:42;100216.75;;;8.28;54.83
78990;BME280;68390;52.130;21.218;2023-03-30T09:34:56;100204.41;;;8.24;53.71
78990;BME280;68390;52.130;21.218;2023-03-30T09:37:23;100213.09;;;8.20;55.40
78990;BME280;68390;52.130;21.218;2023-03-30T09:39:49;100206.59;;;8.21;54.71
78990;BME280;68390;52.130;21.218;2023-03-30T09:42:23;100194.00;;;8.28;55.00
78990;BME280;68390;52.130;21.218;2023-03-30T09:47:38;100191.41;;;8.44;54.36
78990;BME280;68390;52.130;21.218;2023-03-30T09:50:18;100190.25;;;8.55;53.90
78990;BME280;68390;52.130;21.218;2023-03-30T09:52:58;100187.44;;;8.72;54.37
78990;BME280;68390;52.130;21.218;2023-03-30T09:55:28;100183.03;;;8.79;54.11
78990;BME280;68390;52.130;21.218;2023-03-30T09:57:53;100182.75;;;8.91;53.91
78990;BME280;68390;52.130;21.218;2023-03-30T10:00:33;100179.34;;;8.97;52.89
78990;BME280;68390;52.130;21.218;2023-03-30T10:03:01;100171.13;;;9.05;53.31
78990;BME280;68390;52.130;21.218;2023-03-30T10:05:27;100180.44;;;9.20;53.79
78990;BME280;68390;52.130;21.218;2023-03-30T10:08:18;100164.06;;;9.44;53.74
78990;BME280;68390;52.130;21.218;2023-03-30T10:10:44;100159.28;;;9.63;53.41
78990;BME280;68390;52.130;21.218;2023-03-30T10:13:17;100168.19;;;9.81;53.43
78990;BME280;68390;52.130;21.218;2023-03-30T10:15:45;100165.97;;;10.01;52.63
78990;BME280;68390;52.130;21.218;2023-03-30T10:18:22;100164.06;;;10.17;53.44
78990;BME280;68390;52.130;21.218;2023-03-30T10:23:34;100157.69;;;10.41;50.73
78990;BME280;68390;52.130;21.218;2023-03-30T10:26:04;100148.41;;;10.58;51.72
78990;BME280;68390;52.130;21.218;2023-03-30T10:28:32;100142.78;;;10.83;52.70
78990;BME280;68390;52.130;21.218;2023-03-30T10:31:03;100140.13;;;11.06;50.66
78990;BME280;68390;52.130;21.218;2023-03-30T10:33:37;100129.22;;;11.20;49.42
78990;BME280;68390;52.130;21.218;2023-03-30T10:36:05;100129.97;;;11.37;49.93
78990;BME280;68390;52.130;21.218;2023-03-30T10:38:31;100124.97;;;11.40;48.37
78990;BME280;68390;52.130;21.218;2023-03-30T10:41:07;100128.84;;;11.46;48.51
78990;BME280;68390;52.130;21.218;2023-03-30T10:43:34;100122.00;;;11.42;48.08
78990;BME280;68390;52.130;21.218;2023-03-30T10:46:26;100110.53;;;11.61;50.30
78990;BME280;68390;52.130;21.218;2023-03-30T10:49:11;100114.13;;;11.85;48.45
78990;BME280;68390;52.130;21.218;2023-03-30T10:52:00;100117.47;;;11.95;49.20
78990;BME280;68390;52.130;21.218;2023-03-30T10:54:50;100109.03;;;11.73;46.93
78990;BME280;68390;52.130;21.218;2023-03-30T10:57:21;100103.78;;;11.64;47.68
78990;BME280;68390;52.130;21.218;2023-03-30T11:05:23;100096.56;;;11.63;48.18
78990;BME280;68390;52.130;21.218;2023-03-30T11:08:03;100091.38;;;11.68;48.28
78990;BME280;68390;52.130;21.218;2023-03-30T11:10:35;100089.00;;;11.65;47.62
78990;BME280;68390;52.130;21.218;2023-03-30T11:13:06;100084.94;;;11.61;48.40
78990;BME280;68390;52.130;21.218;2023-03-30T11:15:43;100086.22;;;11.73;49.50
78990;BME280;68390;52.130;21.218;2023-03-30T11:18:13;100077.94;;;12.10;48.59
78990;BME280;68390;52.130;21.218;2023-03-30T11:26:18;100075.09;;;12.19;47.26
78990;BME280;68390;52.130;21.218;2023-03-30T11:29:15;100065.63;;;12.21;47.66
78990;BME280;68390;52.130;21.218;2023-03-30T11:35:11;100062.09;;;12.27;48.28
78990;BME280;68390;52.130;21.218;2023-03-30T11:37:45;100053.47;;;12.30;48.00
78990;BME280;68390;52.130;21.218;2023-03-30T11:40:19;100045.03;;;12.32;48.48
78990;BME280;68390;52.130;21.218;2023-03-30T11:42:46;100035.91;;;12.31;48.49
78990;BME280;68390;52.130;21.218;2023-03-30T11:48:16;100026.00;;;12.52;47.82
78990;BME280;68390;52.130;21.218;2023-03-30T11:56:54;100009.00;;;12.63;48.50
78990;BME280;68390;52.130;21.218;2023-03-30T11:59:35;100013.34;;;12.72;48.34
78990;BME280;68390;52.130;21.218;2023-03-30T12:05:41;99998.22;;;12.68;46.99
78990;BME280;68390;52.130;21.218;2023-03-30T12:07:52;99988.16;;;12.75;48.48
78990;BME280;68390;52.130;21.218;2023-03-30T12:10:39;99990.00;;;12.89;47.37
78990;BME280;68390;52.130;21.218;2023-03-30T12:13:10;99981.22;;;13.00;46.13
78990;BME280;68390;52.130;21.218;2023-03-30T12:18:31;99967.56;;;13.13;46.91
78990;BME280;68390;52.130;21.218;2023-03-30T12:21:12;99967.53;;;13.28;45.57
78990;BME280;68390;52.130;21.218;2023-03-30T12:23:51;99959.47;;;13.54;44.76
78990;BME280;68390;52.130;21.218;2023-03-30T12:26:25;99960.94;;;13.78;45.58
78990;BME280;68390;52.130;21.218;2023-03-30T12:28:57;99965.63;;;13.84;44.19
78990;BME280;68390;52.130;21.218;2023-03-30T12:34:18;99954.03;;;13.95;43.76
78990;BME280;68390;52.130;21.218;2023-03-30T12:36:53;99951.25;;;13.95;43.42
78990;BME280;68390;52.130;21.218;2023-03-30T12:39:31;99953.66;;;14.05;43.65
78990;BME280;68390;52.130;21.218;2023-03-30T12:42:05;99946.50;;;14.17;42.55
78990;BME280;68390;52.130;21.218;2023-03-30T12:44:44;99944.34;;;14.13;42.60
78990;BME280;68390;52.130;21.218;2023-03-30T12:53:36;99928.00;;;13.77;45.12
78990;BME280;68390;52.130;21.218;2023-03-30T12:56:02;99926.84;;;13.65;43.37
78990;BME280;68390;52.130;21.218;2023-03-30T13:01:14;99931.56;;;13.43;44.19
78990;BME280;68390;52.130;21.218;2023-03-30T13:03:45;99930.69;;;13.36;44.73
78990;BME280;68390;52.130;21.218;2023-03-30T13:06:27;99931.47;;;13.30;44.95
78990;BME280;68390;52.130;21.218;2023-03-30T13:09:02;99936.38;;;13.13;45.46
78990;BME280;68390;52.130;21.218;2023-03-30T13:11:42;99931.22;;;13.03;45.33
78990;BME280;68390;52.130;21.218;2023-03-30T13:29:48;99912.16;;;12.44;47.19
78990;BME280;68390;52.130;21.218;2023-03-30T13:32:20;99918.25;;;12.40;47.78
78990;BME280;68390;52.130;21.218;2023-03-30T13:40:15;99893.97;;;12.29;47.96
78990;BME280;68390;52.130;21.218;2023-03-30T13:43:08;99896.06;;;12.27;48.62
78990;BME280;68390;52.130;21.218;2023-03-30T13:51:12;99887.16;;;12.25;48.47
78990;BME280;68390;52.130;21.218;2023-03-30T13:53:51;99887.34;;;12.23;49.10
78990;BME280;68390;52.130;21.218;2023-03-30T13:56:20;99880.13;;;12.22;50.08
78990;BME280;68390;52.130;21.218;2023-03-30T13:58:56;99879.47;;;12.20;49.82
78990;BME280;68390;52.130;21.218;2023-03-30T14:01:25;99876.44;;;12.15;49.57
78990;BME280;68390;52.130;21.218;2023-03-30T14:03:55;99872.63;;;12.16;49.69
78990;BME280;68390;52.130;21.218;2023-03-30T14:06:23;99864.00;;;12.19;49.86
78990;BME280;68390;52.130;21.218;2023-03-30T14:11:38;99856.66;;;12.26;50.70
78990;BME280;68390;52.130;21.218;2023-03-30T14:14:04;99860.94;;;12.29;51.02
78990;BME280;68390;52.130;21.218;2023-03-30T14:16:35;99863.69;;;12.29;51.05
78990;BME280;68390;52.130;21.218;2023-03-30T14:19:28;99855.22;;;12.30;52.54
78990;BME280;68390;52.130;21.218;2023-03-30T14:22:00;99855.22;;;12.30;53.65
78990;BME280;68390;52.130;21.218;2023-03-30T14:24:31;99849.06;;;12.28;52.60
78990;BME280;68390;52.130;21.218;2023-03-30T14:27:21;99842.50;;;12.29;51.84
78990;BME280;68390;52.130;21.218;2023-03-30T14:29:49;99837.00;;;12.29;53.88
78990;BME280;68390;52.130;21.218;2023-03-30T14:32:17;99832.94;;;12.25;52.34
78990;BME280;68390;52.130;21.218;2023-03-30T14:34:51;99830.84;;;12.27;52.36
78990;BME280;68390;52.130;21.218;2023-03-30T14:37:17;99830.84;;;12.27;52.92
78990;BME280;68390;52.130;21.218;2023-03-30T14:39:52;99826.59;;;12.25;52.42
78990;BME280;68390;52.130;21.218;2023-03-30T14:42:20;99829.53;;;12.23;52.70
78990;BME280;68390;52.130;21.218;2023-03-30T14:44:48;99825.28;;;12.21;53.35
78990;BME280;68390;52.130;21.218;2023-03-30T14:47:17;99823.75;;;12.18;52.92
78990;BME280;68390;52.130;21.218;2023-03-30T14:49:43;99822.22;;;12.16;54.25
78990;BME280;68390;52.130;21.218;2023-03-30T14:52:17;99829.00;;;12.13;53.13
78990;BME280;68390;52.130;21.218;2023-03-30T14:54:44;99820.84;;;12.05;53.53
78990;BME280;68390;52.130;21.218;2023-03-30T14:57:11;99811.66;;;11.98;52.55
78990;BME280;68390;52.130;21.218;2023-03-30T15:00:11;99813.13;;;11.94;53.88
78990;BME280;68390;52.130;21.218;2023-03-30T15:02:46;99811.78;;;11.90;54.44
78990;BME280;68390;52.130;21.218;2023-03-30T15:05:16;99814.06;;;11.86;53.63
78990;BME280;68390;52.130;21.218;2023-03-30T15:07:45;99817.22;;;11.83;53.25